createdAt,value
2018-03-11T00:01:19.427Z,42.97
2018-03-11T00:03:47.564Z,40.40
2018-03-11T00:06:15.701Z,39.27
2018-03-11T00:08:43.827Z,39.03
2018-03-11T00:11:12.794Z,38.70
2018-03-11T00:13:40.916Z,41.33
2018-03-11T00:16:09.818Z,42.30
2018-03-11T00:18:37.952Z,40.57
2018-03-11T00:21:06.060Z,40.30
2018-03-11T00:23:34.183Z,39.97
2018-03-11T00:26:02.274Z,37.10
2018-03-11T00:28:30.394Z,39.33
2018-03-11T00:30:58.478Z,39.93
2018-03-11T00:33:26.660Z,40.17
2018-03-11T00:35:54.829Z,40.43
2018-03-11T00:38:22.975Z,39.50
2018-03-11T00:40:51.866Z,39.57
2018-03-11T00:43:19.981Z,38.83
2018-03-11T00:45:48.074Z,35.90
2018-03-11T00:48:16.177Z,40.50
2018-03-11T00:50:44.967Z,40.53
2018-03-11T00:53:13.400Z,39.43
2018-03-11T00:55:46.738Z,36.73
2018-03-11T00:58:15.003Z,40.63
2018-03-11T01:00:43.506Z,38.97
2018-03-11T01:03:12.434Z,38.20
2018-03-11T01:05:40.568Z,35.60
2018-03-11T01:08:08.655Z,40.53
2018-03-11T01:10:36.748Z,40.20
2018-03-11T01:13:04.972Z,38.77
2018-03-11T01:15:33.860Z,37.00
2018-03-11T01:18:02.723Z,38.17
2018-03-11T01:20:30.847Z,39.03
2018-03-11T01:22:58.950Z,39.00
2018-03-11T01:25:27.205Z,38.00
2018-03-11T01:27:55.331Z,40.40
2018-03-11T01:30:23.429Z,40.37
2018-03-11T01:32:51.569Z,41.13
2018-03-11T01:35:20.436Z,39.80
2018-03-11T01:37:48.604Z,41.70
2018-03-11T01:40:16.744Z,40.10
2018-03-11T01:42:45.886Z,38.97
2018-03-11T01:45:14.220Z,37.27
2018-03-11T01:47:42.300Z,39.47
2018-03-11T01:50:10.384Z,43.60
2018-03-11T01:55:47.170Z,39.27
2018-03-11T01:58:15.289Z,39.23
2018-03-11T02:00:43.891Z,39.87
2018-03-11T02:03:11.968Z,36.00
2018-03-11T02:05:40.118Z,35.20
2018-03-11T02:08:08.231Z,38.57
2018-03-11T02:10:36.311Z,37.97
2018-03-11T02:13:04.454Z,38.47
2018-03-11T02:15:32.560Z,39.40
2018-03-11T02:18:00.649Z,35.57
2018-03-11T02:20:28.743Z,37.30
2018-03-11T02:22:56.839Z,35.93
2018-03-11T02:25:24.940Z,37.53
2018-03-11T02:27:53.045Z,36.23
2018-03-11T02:30:22.140Z,36.63
2018-03-11T02:32:50.240Z,35.00
2018-03-11T02:35:19.105Z,36.73
2018-03-11T02:37:47.225Z,36.47
2018-03-11T02:40:16.195Z,35.30
2018-03-11T02:42:44.318Z,35.30
2018-03-11T02:45:12.425Z,38.40
2018-03-11T02:47:43.669Z,38.57
2018-03-11T02:50:12.593Z,35.97
2018-03-11T02:52:40.691Z,41.77
2018-03-11T02:55:08.797Z,34.27
2018-03-11T02:57:36.884Z,38.00
2018-03-11T03:00:04.985Z,36.70
2018-03-11T03:02:33.851Z,34.17
2018-03-11T03:05:02.072Z,34.70
2018-03-11T03:07:31.009Z,36.47
2018-03-11T03:09:59.174Z,35.13
2018-03-11T03:12:27.348Z,35.40
2018-03-11T03:14:56.187Z,34.50
2018-03-11T03:17:24.310Z,35.83
2018-03-11T03:19:52.395Z,35.87
2018-03-11T03:22:20.498Z,35.77
2018-03-11T03:24:50.062Z,33.67
2018-03-11T03:27:18.162Z,35.03
2018-03-11T03:29:46.254Z,34.67
2018-03-11T03:32:14.595Z,34.83
2018-03-11T03:34:42.678Z,32.43
2018-03-11T03:37:10.787Z,33.23
2018-03-11T03:39:38.874Z,30.43
2018-03-11T03:42:06.999Z,31.90
2018-03-11T03:44:35.177Z,33.03
2018-03-11T03:47:03.284Z,31.27
2018-03-11T03:49:32.143Z,31.60
2018-03-11T03:52:00.390Z,32.30
2018-03-11T03:54:28.475Z,30.73
2018-03-11T03:56:56.595Z,32.50
2018-03-11T03:59:24.698Z,34.20
2018-03-11T04:01:52.784Z,32.23
2018-03-11T04:04:20.909Z,32.27
2018-03-11T04:06:50.048Z,32.53
2018-03-11T04:09:18.236Z,30.07
2018-03-11T04:11:46.337Z,30.70
2018-03-11T04:14:14.477Z,31.43
2018-03-11T04:16:42.583Z,32.50
2018-03-11T04:19:10.716Z,29.53
2018-03-11T04:21:38.794Z,31.37
2018-03-11T04:24:07.108Z,29.30
2018-03-11T04:26:35.323Z,31.83
2018-03-11T04:29:03.425Z,30.97
2018-03-11T04:31:31.517Z,31.37
2018-03-11T04:34:01.507Z,29.93
2018-03-11T04:36:29.619Z,30.37
2018-03-11T04:38:57.759Z,31.60
2018-03-11T04:41:26.842Z,28.67
2018-03-11T04:43:54.958Z,30.57
2018-03-11T04:46:23.033Z,31.87
2018-03-11T04:48:51.935Z,30.87
2018-03-11T04:51:20.023Z,29.37
2018-03-11T04:53:48.882Z,31.40
2018-03-11T04:56:16.977Z,29.30
2018-03-11T04:58:45.082Z,28.60
2018-03-11T05:01:13.940Z,30.40
2018-03-11T05:03:42.127Z,29.80
2018-03-11T05:06:10.256Z,29.93
2018-03-11T05:08:39.112Z,29.70
2018-03-11T05:11:07.218Z,27.80
2018-03-11T05:13:35.317Z,29.90
2018-03-11T05:16:03.405Z,28.70
2018-03-11T05:18:32.270Z,30.50
2018-03-11T05:21:00.541Z,29.57
2018-03-11T05:23:28.675Z,28.40
2018-03-11T05:25:56.821Z,29.27
2018-03-11T05:28:24.996Z,28.57
2018-03-11T05:30:53.129Z,29.50
2018-03-11T05:33:21.268Z,28.77
2018-03-11T05:35:49.336Z,29.30
2018-03-11T05:38:17.423Z,29.07
2018-03-11T05:40:45.859Z,29.20
2018-03-11T05:43:13.950Z,34.00
2018-03-11T05:45:42.096Z,30.40
2018-03-11T05:48:10.207Z,28.57
2018-03-11T05:50:38.347Z,29.10
2018-03-11T05:53:06.860Z,30.37
2018-03-11T05:55:34.960Z,26.73
2018-03-11T05:58:03.078Z,26.90
2018-03-11T06:00:31.180Z,32.00
2018-03-11T06:03:00.063Z,30.80
2018-03-11T06:05:29.018Z,29.40
2018-03-11T06:07:57.132Z,29.87
2018-03-11T06:10:25.240Z,29.43
2018-03-11T06:12:54.129Z,30.60
2018-03-11T06:15:22.227Z,28.73
2018-03-11T06:17:51.083Z,28.17
2018-03-11T06:20:19.191Z,26.60
2018-03-11T06:22:47.286Z,28.07
2018-03-11T06:25:15.381Z,25.83
2018-03-11T06:27:43.465Z,25.33
2018-03-11T06:30:12.330Z,27.13
2018-03-11T06:32:40.410Z,27.90
2018-03-11T06:35:08.491Z,26.73
2018-03-11T06:37:36.614Z,26.27
2018-03-11T06:40:05.491Z,25.10
2018-03-11T06:42:33.830Z,28.57
2018-03-11T06:45:01.979Z,26.70
2018-03-11T06:47:30.126Z,28.10
2018-03-11T06:49:58.999Z,25.40
2018-03-11T06:52:27.090Z,27.33
2018-03-11T06:54:55.177Z,26.40
2018-03-11T06:57:23.280Z,27.43
2018-03-11T06:59:52.119Z,26.17
2018-03-11T07:02:20.251Z,25.97
2018-03-11T07:04:48.367Z,26.43
2018-03-11T07:07:16.552Z,25.70
2018-03-11T07:09:44.653Z,24.80
2018-03-11T07:12:13.558Z,24.60
2018-03-11T07:14:41.637Z,26.20
2018-03-11T07:17:09.725Z,24.93
2018-03-11T07:19:37.843Z,24.50
2018-03-11T07:22:06.199Z,24.70
2018-03-11T07:24:34.323Z,25.43
2018-03-11T07:27:02.444Z,23.70
2018-03-11T07:29:30.616Z,22.87
2018-03-11T07:31:58.756Z,25.17
2018-03-11T07:34:27.617Z,24.20
2018-03-11T07:36:55.703Z,23.60
2018-03-11T07:39:23.793Z,24.17
2018-03-11T07:41:52.190Z,23.47
2018-03-11T07:44:20.273Z,22.63
2018-03-11T07:46:48.369Z,23.90
2018-03-11T07:49:16.535Z,21.77
2018-03-11T07:51:46.028Z,21.73
2018-03-11T07:54:14.119Z,21.53
2018-03-11T07:56:42.222Z,23.27
2018-03-11T07:59:10.347Z,22.27
2018-03-11T08:01:39.258Z,21.23
2018-03-11T08:04:07.452Z,20.90
2018-03-11T08:06:35.570Z,21.10
2018-03-11T08:09:03.779Z,20.17
2018-03-11T08:11:31.928Z,20.30
2018-03-11T08:14:00.027Z,20.93
2018-03-11T08:16:28.131Z,20.57
2018-03-11T08:18:56.254Z,19.50
2018-03-11T08:21:24.399Z,19.30
2018-03-11T08:23:52.519Z,19.53
2018-03-11T08:26:21.387Z,19.33
2018-03-11T08:28:50.049Z,20.50
2018-03-11T08:31:18.269Z,19.73
2018-03-11T08:33:46.480Z,20.87
2018-03-11T08:36:15.367Z,18.90
2018-03-11T08:38:44.285Z,18.63
2018-03-11T08:41:14.068Z,19.43
2018-03-11T08:43:42.213Z,20.47
2018-03-11T08:46:10.357Z,18.57
2018-03-11T08:48:38.479Z,19.90
2018-03-11T08:51:06.610Z,19.80
2018-03-11T08:53:34.852Z,20.37
2018-03-11T08:56:02.975Z,19.83
2018-03-11T08:58:31.318Z,20.67
2018-03-11T09:01:00.198Z,19.20
2018-03-11T09:03:29.706Z,19.50
2018-03-11T09:05:58.604Z,18.23
2018-03-11T09:08:26.830Z,18.53
2018-03-11T09:10:54.957Z,20.77
2018-03-11T09:13:23.087Z,17.83
2018-03-11T09:15:51.974Z,18.67
2018-03-11T09:18:20.103Z,18.63
2018-03-11T09:20:48.223Z,17.83
2018-03-11T09:23:16.393Z,19.47
2018-03-11T09:25:44.563Z,18.67
2018-03-11T09:28:12.780Z,19.93
2018-03-11T09:30:40.964Z,17.93
2018-03-11T09:33:09.178Z,19.70
2018-03-11T09:35:37.347Z,20.30
2018-03-11T09:38:05.472Z,17.97
2018-03-11T09:40:33.570Z,17.53
2018-03-11T09:43:01.732Z,17.77
2018-03-11T09:45:30.643Z,20.53
2018-03-11T09:47:59.587Z,18.47
2018-03-11T09:50:27.713Z,18.80
2018-03-11T09:52:55.933Z,18.50
2018-03-11T09:55:26.376Z,17.60
2018-03-11T09:57:55.145Z,18.20
2018-03-11T10:00:23.303Z,17.87
2018-03-11T10:02:52.168Z,18.50
2018-03-11T10:05:21.119Z,17.93
2018-03-11T10:07:49.446Z,17.10
2018-03-11T10:10:18.414Z,16.37
2018-03-11T10:12:46.548Z,17.40
2018-03-11T10:15:15.080Z,17.57
2018-03-11T10:17:43.285Z,20.70
2018-03-11T10:20:11.481Z,17.77
2018-03-11T10:22:39.733Z,18.27
2018-03-11T10:25:07.838Z,17.10
2018-03-11T10:27:39.840Z,17.07
2018-03-11T10:30:08.767Z,16.87
2018-03-11T10:32:36.821Z,17.10
2018-03-11T10:35:04.973Z,16.93
2018-03-11T10:37:33.102Z,15.33
2018-03-11T10:40:01.981Z,17.67
2018-03-11T10:42:30.264Z,15.87
2018-03-11T10:44:58.374Z,16.60
2018-03-11T10:47:27.285Z,16.50
2018-03-11T10:49:55.475Z,15.13
2018-03-11T10:52:23.764Z,16.20
2018-03-11T10:54:51.889Z,14.60
2018-03-11T10:57:20.143Z,15.70
2018-03-11T10:59:48.240Z,15.30
2018-03-11T11:02:19.076Z,14.83
2018-03-11T11:04:52.995Z,15.03
2018-03-11T11:07:21.429Z,13.93
2018-03-11T11:09:49.578Z,14.40
2018-03-11T11:12:17.770Z,12.57
2018-03-11T11:14:46.613Z,14.73
2018-03-11T11:17:14.713Z,13.27
2018-03-11T11:19:43.600Z,14.13
2018-03-11T11:22:11.835Z,15.20
2018-03-11T11:24:39.955Z,14.37
2018-03-11T11:27:08.094Z,14.83
2018-03-11T11:29:36.262Z,14.33
2018-03-11T11:32:04.447Z,13.80
2018-03-11T11:34:32.587Z,13.37
2018-03-11T11:37:00.842Z,13.20
2018-03-11T11:39:28.993Z,12.17
2018-03-11T11:41:57.807Z,12.13
2018-03-11T11:44:25.890Z,12.03
2018-03-11T11:46:54.008Z,12.17
2018-03-11T11:49:22.146Z,12.33
2018-03-11T11:51:50.388Z,10.37
2018-03-11T11:54:18.562Z,10.20
2018-03-11T11:56:47.481Z,9.60
2018-03-11T11:59:15.615Z,10.47
2018-03-11T12:01:43.754Z,9.23
2018-03-11T12:04:11.910Z,9.17
2018-03-11T12:06:40.258Z,8.23
2018-03-11T12:09:08.423Z,7.53
2018-03-11T12:11:36.713Z,10.10
2018-03-11T12:14:04.904Z,7.57
2018-03-11T12:16:33.134Z,7.27
2018-03-11T12:19:01.271Z,6.80
2018-03-11T12:21:29.364Z,7.80
2018-03-11T12:23:57.496Z,7.90
2018-03-11T12:26:25.796Z,7.57
2018-03-11T12:28:54.712Z,7.07
2018-03-11T12:31:22.897Z,7.30
2018-03-11T12:33:51.465Z,7.63
2018-03-11T12:36:22.009Z,6.93
2018-03-11T12:38:50.236Z,6.83
2018-03-11T12:41:18.323Z,5.87
2018-03-11T12:43:46.440Z,6.50
2018-03-11T12:46:14.518Z,5.53
2018-03-11T12:48:42.634Z,5.00
2018-03-11T12:51:10.777Z,6.00
2018-03-11T12:53:40.396Z,5.90
2018-03-11T12:56:08.595Z,6.50
2018-03-11T12:58:36.883Z,7.57
2018-03-11T13:01:05.103Z,6.60
2018-03-11T13:03:33.216Z,5.67
2018-03-11T13:06:02.326Z,5.50
2018-03-11T13:08:30.414Z,6.10
2018-03-11T13:10:58.672Z,5.50
2018-03-11T13:13:27.573Z,5.43
2018-03-11T13:15:55.911Z,6.10
2018-03-11T13:18:24.024Z,4.63
2018-03-11T13:21:03.681Z,4.70
2018-03-11T13:23:31.829Z,4.13
2018-03-11T13:26:00.376Z,4.13
2018-03-11T13:28:41.132Z,4.33
2018-03-11T13:31:09.497Z,3.97
2018-03-11T13:33:49.466Z,4.03
2018-03-11T13:36:17.656Z,7.80
2018-03-11T13:38:57.586Z,5.10
2018-03-11T13:41:25.722Z,4.10
2018-03-11T13:43:54.608Z,3.90
2018-03-11T13:46:34.488Z,4.30
2018-03-11T13:49:03.391Z,2.70
2018-03-11T13:51:47.152Z,3.60
2018-03-11T13:54:15.240Z,4.00
2018-03-11T13:56:43.540Z,2.87
2018-03-11T13:59:11.659Z,3.77
2018-03-11T14:01:39.837Z,3.20
2018-03-11T14:04:08.011Z,3.20
2018-03-11T14:06:36.163Z,2.70
2018-03-11T14:09:05.125Z,3.30
2018-03-11T14:11:33.225Z,5.27
2018-03-11T14:14:01.404Z,3.10
2018-03-11T14:16:29.537Z,3.73
2018-03-11T14:18:57.772Z,3.67
2018-03-11T14:21:25.866Z,3.93
2018-03-11T14:23:53.983Z,2.80
2018-03-11T14:26:22.180Z,3.40
2018-03-11T14:28:50.313Z,3.27
2018-03-11T14:31:18.417Z,2.63
2018-03-11T14:33:46.532Z,3.10
2018-03-11T14:36:14.737Z,2.63
2018-03-11T14:38:42.874Z,5.43
2018-03-11T14:41:11.083Z,3.40
2018-03-11T14:43:39.995Z,3.53
2018-03-11T14:46:08.152Z,3.30
2018-03-11T14:48:36.268Z,3.40
2018-03-11T14:51:04.418Z,3.10
2018-03-11T14:53:32.679Z,3.83
2018-03-11T14:56:00.829Z,4.00
2018-03-11T14:58:29.963Z,4.30
2018-03-11T15:00:58.066Z,4.10
2018-03-11T15:03:26.169Z,4.37
2018-03-11T15:05:54.298Z,4.20
2018-03-11T15:08:22.428Z,3.40
2018-03-11T15:10:50.835Z,5.17
2018-03-11T15:13:18.942Z,4.43
2018-03-11T15:15:47.096Z,4.13
2018-03-11T15:18:15.210Z,4.10
2018-03-11T15:20:44.486Z,5.10
2018-03-11T15:23:12.614Z,4.30
2018-03-11T15:25:41.703Z,4.57
2018-03-11T15:28:09.867Z,4.40
2018-03-11T15:30:38.025Z,4.00
2018-03-11T15:33:06.188Z,4.50
2018-03-11T15:35:34.299Z,4.37
2018-03-11T15:38:02.406Z,6.17
2018-03-11T15:40:30.538Z,4.13
2018-03-11T15:42:58.628Z,4.73
2018-03-11T15:45:26.736Z,4.20
2018-03-11T15:47:54.891Z,4.33
2018-03-11T15:50:22.999Z,4.43
2018-03-11T15:52:51.240Z,3.47
2018-03-11T15:55:19.418Z,4.60
2018-03-11T15:57:47.572Z,4.90
2018-03-11T16:00:15.775Z,3.83
2018-03-11T16:02:43.892Z,3.83
2018-03-11T16:05:11.999Z,4.33
2018-03-11T16:07:40.129Z,3.63
2018-03-11T16:10:08.513Z,3.97
2018-03-11T16:12:36.760Z,4.73
2018-03-11T16:15:04.927Z,4.60
2018-03-11T16:17:33.011Z,4.87
2018-03-11T16:20:01.151Z,4.30
2018-03-11T16:22:29.254Z,5.57
2018-03-11T16:24:58.124Z,5.90
2018-03-11T16:27:26.416Z,7.20
2018-03-11T16:29:54.601Z,6.23
2018-03-11T16:32:22.740Z,6.13
2018-03-11T16:34:50.866Z,6.03
2018-03-11T16:37:19.150Z,5.97
2018-03-11T16:39:47.338Z,6.90
2018-03-11T16:42:15.437Z,6.93
2018-03-11T16:44:43.601Z,6.77
2018-03-11T16:47:11.817Z,6.43
2018-03-11T16:49:39.933Z,6.60
2018-03-11T16:52:08.827Z,8.50
2018-03-11T16:54:38.645Z,8.33
2018-03-11T16:57:08.354Z,8.10
2018-03-11T16:59:36.452Z,8.73
2018-03-11T17:02:05.463Z,8.20
2018-03-11T17:04:34.350Z,7.70
2018-03-11T17:07:02.512Z,8.63
2018-03-11T17:09:31.157Z,8.70
2018-03-11T17:12:00.031Z,8.30
2018-03-11T17:14:28.145Z,9.07
2018-03-11T17:16:57.095Z,8.97
2018-03-11T17:19:25.227Z,9.27
2018-03-11T17:21:54.114Z,9.63
2018-03-11T17:24:22.206Z,9.27
2018-03-11T17:26:50.537Z,9.83
2018-03-11T17:29:18.727Z,9.67
2018-03-11T17:31:46.845Z,9.60
2018-03-11T17:34:15.696Z,9.10
2018-03-11T17:36:43.930Z,8.73
2018-03-11T17:39:12.096Z,9.30
2018-03-11T17:41:40.320Z,8.70
2018-03-11T17:44:08.403Z,10.30
2018-03-11T17:46:36.577Z,9.60
2018-03-11T17:49:05.084Z,8.90
2018-03-11T17:51:33.191Z,9.70
2018-03-11T17:54:01.333Z,9.50
2018-03-11T17:56:29.461Z,9.40
2018-03-11T17:58:57.639Z,10.30
2018-03-11T18:01:25.844Z,9.80
2018-03-11T18:03:53.896Z,10.33
2018-03-11T18:06:22.055Z,10.20
2018-03-11T18:08:50.213Z,10.60
2018-03-11T18:11:18.295Z,9.67
2018-03-11T18:13:46.466Z,9.80
2018-03-11T18:16:14.669Z,9.40
2018-03-11T18:18:42.882Z,10.93
2018-03-11T18:21:11.018Z,9.60
2018-03-11T18:23:39.136Z,10.73
2018-03-11T18:26:07.332Z,10.17
2018-03-11T18:28:35.431Z,10.70
2018-03-11T18:31:03.636Z,10.57
2018-03-11T18:33:31.749Z,10.47
2018-03-11T18:35:59.966Z,10.23
2018-03-11T18:38:28.083Z,11.73
2018-03-11T18:40:56.955Z,10.23
2018-03-11T18:43:25.139Z,10.43
2018-03-11T18:45:53.266Z,10.70
2018-03-11T18:48:22.167Z,9.40
2018-03-11T18:50:51.059Z,10.33
2018-03-11T18:53:19.167Z,11.70
2018-03-11T18:55:47.282Z,11.77
2018-03-11T18:58:15.518Z,11.07
2018-03-11T19:00:43.633Z,11.33
2018-03-11T19:03:11.780Z,11.10
2018-03-11T19:05:39.891Z,11.10
2018-03-11T19:08:08.067Z,11.20
2018-03-11T19:10:36.987Z,12.00
2018-03-11T19:13:05.165Z,10.57
2018-03-11T19:15:34.037Z,12.33
2018-03-11T19:18:02.185Z,10.50
2018-03-11T19:20:31.115Z,10.13
2018-03-11T19:22:59.226Z,11.87
2018-03-11T19:25:28.117Z,11.90
2018-03-11T19:27:56.222Z,11.60
2018-03-11T19:30:24.366Z,12.97
2018-03-11T19:32:52.555Z,12.17
2018-03-11T19:35:20.689Z,12.37
2018-03-11T19:37:48.847Z,13.80
2018-03-11T19:40:16.993Z,14.63
2018-03-11T19:42:45.115Z,14.40
2018-03-11T19:45:13.286Z,13.80
2018-03-11T19:47:41.504Z,13.27
2018-03-11T19:50:10.402Z,13.63
2018-03-11T19:52:38.588Z,14.50
2018-03-11T19:55:07.529Z,15.20
2018-03-11T19:57:35.631Z,15.00
2018-03-11T20:00:03.808Z,15.20
2018-03-11T20:02:32.056Z,14.10
2018-03-11T20:05:00.935Z,14.97
2018-03-11T20:07:29.058Z,14.00
2018-03-11T20:09:57.168Z,14.60
2018-03-11T20:12:25.310Z,14.70
2018-03-11T20:14:53.431Z,15.40
2018-03-11T20:17:21.558Z,15.90
2018-03-11T20:19:49.753Z,14.30
2018-03-11T20:22:17.890Z,14.40
2018-03-11T20:24:46.008Z,15.20
2018-03-11T20:27:14.130Z,13.97
2018-03-11T20:29:42.289Z,15.00
2018-03-11T20:32:10.678Z,14.30
2018-03-11T20:34:38.776Z,15.40
2018-03-11T20:37:06.878Z,16.50
2018-03-11T20:39:35.090Z,17.00
2018-03-11T20:42:03.225Z,17.43
2018-03-11T20:44:31.407Z,17.43
2018-03-11T20:47:00.295Z,17.10
2018-03-11T20:49:28.428Z,17.13
2018-03-11T20:51:56.542Z,20.30
2018-03-11T20:54:24.662Z,18.67
2018-03-11T20:56:52.881Z,19.03
2018-03-11T20:59:20.970Z,18.77
2018-03-11T21:01:49.192Z,19.57
2018-03-11T21:04:17.431Z,18.07
2018-03-11T21:06:45.545Z,18.53
2018-03-11T21:09:13.662Z,19.10
2018-03-11T21:11:41.802Z,20.03
2018-03-11T21:14:09.967Z,20.80
2018-03-11T21:16:38.044Z,19.43
2018-03-11T21:19:06.248Z,19.40
2018-03-11T21:21:34.341Z,19.73
2018-03-11T21:24:02.465Z,19.47
2018-03-11T21:26:30.832Z,17.63
2018-03-11T21:28:59.000Z,20.20
2018-03-11T21:31:27.125Z,18.97
2018-03-11T21:33:55.305Z,20.13
2018-03-11T21:36:23.428Z,19.03
2018-03-11T21:38:51.523Z,20.20
2018-03-11T21:41:19.663Z,21.50
2018-03-11T21:43:47.803Z,20.33
2018-03-11T21:46:15.945Z,20.93
2018-03-11T21:48:44.058Z,21.17
2018-03-11T21:51:12.374Z,23.40
2018-03-11T21:53:41.321Z,20.87
2018-03-11T21:56:09.590Z,21.47
2018-03-11T21:58:37.633Z,22.90
2018-03-11T22:01:05.744Z,21.03
2018-03-11T22:03:33.861Z,21.50
2018-03-11T22:06:02.009Z,21.67
2018-03-11T22:08:30.122Z,21.13
2018-03-11T22:10:58.257Z,20.50
2018-03-11T22:13:26.367Z,22.40
2018-03-11T22:15:54.475Z,22.20
2018-03-11T22:18:22.595Z,21.87
2018-03-11T22:20:50.752Z,22.97
2018-03-11T22:23:18.906Z,24.03
2018-03-11T22:25:47.003Z,20.83
2018-03-11T22:28:15.204Z,23.10
2018-03-11T22:30:43.299Z,23.10
2018-03-11T22:33:11.443Z,22.43
2018-03-11T22:35:39.655Z,22.43
2018-03-11T22:38:07.771Z,23.20
2018-03-11T22:40:36.668Z,22.43
2018-03-11T22:43:05.533Z,23.50
2018-03-11T22:45:33.750Z,20.97
2018-03-11T22:48:02.658Z,22.50
2018-03-11T22:50:30.799Z,22.90
2018-03-11T22:52:58.927Z,22.87
2018-03-11T22:55:27.061Z,23.67
2018-03-11T22:57:55.171Z,23.70
2018-03-11T23:00:23.322Z,24.03
2018-03-11T23:02:51.413Z,25.17
2018-03-11T23:05:19.506Z,25.37
2018-03-11T23:07:47.614Z,25.60
2018-03-11T23:10:15.730Z,24.80
2018-03-11T23:12:43.932Z,24.67
2018-03-11T23:15:12.024Z,25.00
2018-03-11T23:17:40.142Z,26.07
2018-03-11T23:20:08.251Z,24.27
2018-03-11T23:22:37.147Z,24.77
2018-03-11T23:25:05.276Z,25.80
2018-03-11T23:27:33.380Z,25.77
2018-03-11T23:30:01.500Z,25.47
2018-03-11T23:32:29.942Z,26.50
2018-03-11T23:34:58.079Z,25.93
2018-03-11T23:37:26.171Z,26.07
2018-03-11T23:39:54.329Z,25.80
2018-03-11T23:42:22.477Z,27.00
2018-03-11T23:44:50.603Z,28.70
2018-03-11T23:47:18.779Z,30.47
2018-03-11T23:49:46.957Z,27.50
2018-03-11T23:52:15.056Z,27.77
2018-03-11T23:54:43.240Z,27.93
2018-03-11T23:57:11.354Z,27.73
2018-03-11T23:59:40.257Z,29.73
